sensor_id;sensor_type;location;lat;lon;timestamp;pressure;altitude;pressure_sealevel;temperature;humidity
14885;BME280;7534;50.762;7.000;2023-03-25T00:01:57;88233.69;;;-143.16;59.99
14885;BME280;7534;50.762;7.000;2023-03-25T00:04:22;88280.13;;;-143.16;60.18
14885;BME280;7534;50.762;7.000;2023-03-25T00:06:54;88245.81;;;-143.16;59.82
14885;BME280;7534;50.762;7.000;2023-03-25T00:09:20;88268.00;;;-143.16;60.48
14885;BME280;7534;50.762;7.000;2023-03-25T00:11:49;88314.44;;;-143.16;60.79
14885;BME280;7534;50.762;7.000;2023-03-25T00:14:15;88330.59;;;-143.16;60.85
14885;BME280;7534;50.762;7.000;2023-03-25T00:16:42;88286.19;;;-143.16;60.86
14885;BME280;7534;50.762;7.000;2023-03-25T00:19:10;88263.97;;;-143.16;60.98
14885;BME280;7534;50.762;7.000;2023-03-25T00:21:35;88330.59;;;-143.16;61.47
14885;BME280;7534;50.762;7.000;2023-03-25T00:24:01;88284.16;;;-143.16;61.96
14885;BME280;7534;50.762;7.000;2023-03-25T00:26:27;88342.72;;;-143.16;61.51
14885;BME280;7534;50.762;7.000;2023-03-25T00:28:54;88326.56;;;-143.16;61.87
14885;BME280;7534;50.762;7.000;2023-03-25T00:31:20;88328.56;;;-143.16;62.14
14885;BME280;7534;50.762;7.000;2023-03-25T00:33:46;88286.19;;;-143.16;62.19
14885;BME280;7534;50.762;7.000;2023-03-25T00:36:12;88318.47;;;-143.16;62.13
14885;BME280;7534;50.762;7.000;2023-03-25T00:38:47;88310.41;;;-143.16;62.07
14885;BME280;7534;50.762;7.000;2023-03-25T00:41:22;88292.22;;;-143.16;61.77
14885;BME280;7534;50.762;7.000;2023-03-25T00:43:52;88276.09;;;-143.16;61.54
14885;BME280;7534;50.762;7.000;2023-03-25T00:46:19;88296.28;;;-143.16;60.88
14885;BME280;7534;50.762;7.000;2023-03-25T00:48:45;88207.44;;;-143.16;60.55
14885;BME280;7534;50.762;7.000;2023-03-25T00:51:11;88261.97;;;-143.16;60.24
14885;BME280;7534;50.762;7.000;2023-03-25T00:53:38;88266.00;;;-143.16;60.23
14885;BME280;7534;50.762;7.000;2023-03-25T00:56:04;88185.25;;;-143.16;59.89
14885;BME280;7534;50.762;7.000;2023-03-25T00:58:30;88187.25;;;-143.16;59.50
14885;BME280;7534;50.762;7.000;2023-03-25T01:00:56;88195.34;;;-143.16;59.71
14885;BME280;7534;50.762;7.000;2023-03-25T01:03:26;88191.31;;;-143.16;59.36
14885;BME280;7534;50.762;7.000;2023-03-25T01:05:55;88199.38;;;-143.16;59.22
14885;BME280;7534;50.762;7.000;2023-03-25T01:08:22;88225.63;;;-143.16;59.34
14885;BME280;7534;50.762;7.000;2023-03-25T01:10:55;88239.75;;;-143.16;58.97
14885;BME280;7534;50.762;7.000;2023-03-25T01:13:22;88167.06;;;-143.16;59.19
14885;BME280;7534;50.762;7.000;2023-03-25T01:15:48;88146.88;;;-143.16;59.20
14885;BME280;7534;50.762;7.000;2023-03-25T01:18:14;88229.66;;;-143.16;59.30
14885;BME280;7534;50.762;7.000;2023-03-25T01:20:40;88221.59;;;-143.16;59.61
14885;BME280;7534;50.762;7.000;2023-03-25T01:23:06;88225.63;;;-143.16;59.84
14885;BME280;7534;50.762;7.000;2023-03-25T01:25:34;88205.44;;;-143.16;59.70
14885;BME280;7534;50.762;7.000;2023-03-25T01:28:01;88249.84;;;-143.16;59.64
14885;BME280;7534;50.762;7.000;2023-03-25T01:30:27;88217.53;;;-143.16;59.30
14885;BME280;7534;50.762;7.000;2023-03-25T01:32:53;88177.16;;;-143.16;59.71
14885;BME280;7534;50.762;7.000;2023-03-25T01:35:18;88177.16;;;-143.16;59.38
14885;BME280;7534;50.762;7.000;2023-03-25T01:37:44;88157.00;;;-143.16;59.13
14885;BME280;7534;50.762;7.000;2023-03-25T01:40:18;88138.81;;;-143.16;59.02
14885;BME280;7534;50.762;7.000;2023-03-25T01:42:44;88219.56;;;-143.16;59.07
14885;BME280;7534;50.762;7.000;2023-03-25T01:45:29;88197.34;;;-143.16;58.63
14885;BME280;7534;50.762;7.000;2023-03-25T01:48:22;88191.31;;;-143.16;58.74
14885;BME280;7534;50.762;7.000;2023-03-25T01:51:09;88187.25;;;-143.16;58.91
14885;BME280;7534;50.762;7.000;2023-03-25T01:53:37;88169.09;;;-143.16;59.19
14885;BME280;7534;50.762;7.000;2023-03-25T01:56:07;88157.00;;;-143.16;59.08
14885;BME280;7534;50.762;7.000;2023-03-25T01:58:35;88189.28;;;-143.16;59.39
14885;BME280;7534;50.762;7.000;2023-03-25T02:01:03;88219.56;;;-143.16;59.22
14885;BME280;7534;50.762;7.000;2023-03-25T02:03:30;88181.22;;;-143.16;59.09
14885;BME280;7534;50.762;7.000;2023-03-25T02:06:06;88209.47;;;-143.16;59.29
14885;BME280;7534;50.762;7.000;2023-03-25T02:08:38;88193.31;;;-143.16;59.08
14885;BME280;7534;50.762;7.000;2023-03-25T02:11:09;88197.34;;;-143.16;58.71
14885;BME280;7534;50.762;7.000;2023-03-25T02:13:38;88157.00;;;-143.16;58.73
14885;BME280;7534;50.762;7.000;2023-03-25T02:16:31;88187.25;;;-143.16;59.08
14885;BME280;7534;50.762;7.000;2023-03-25T02:19:34;88195.34;;;-143.16;58.54
14885;BME280;7534;50.762;7.000;2023-03-25T02:25:22;88187.25;;;-143.16;59.12
14885;BME280;7534;50.762;7.000;2023-03-25T02:40:07;88239.75;;;-143.16;59.19
14885;BME280;7534;50.762;7.000;2023-03-25T02:45:30;88290.22;;;-143.16;59.70
14885;BME280;7534;50.762;7.000;2023-03-25T02:48:07;88284.16;;;-143.16;60.47
14885;BME280;7534;50.762;7.000;2023-03-25T02:50:50;88181.22;;;-143.16;60.34
14885;BME280;7534;50.762;7.000;2023-03-25T02:53:25;88235.72;;;-143.16;60.72
14885;BME280;7534;50.762;7.000;2023-03-25T02:55:57;88233.69;;;-143.16;59.96
14885;BME280;7534;50.762;7.000;2023-03-25T02:58:26;88193.31;;;-143.16;60.20
14885;BME280;7534;50.762;7.000;2023-03-25T03:00:55;88231.69;;;-143.16;60.06
14885;BME280;7534;50.762;7.000;2023-03-25T03:03:27;88249.84;;;-143.16;59.96
14885;BME280;7534;50.762;7.000;2023-03-25T03:05:58;88227.63;;;-143.16;60.19
14885;BME280;7534;50.762;7.000;2023-03-25T03:11:26;88225.63;;;-143.16;59.69
14885;BME280;7534;50.762;7.000;2023-03-25T03:14:08;88259.94;;;-143.16;59.25
14885;BME280;7534;50.762;7.000;2023-03-25T03:17:05;88239.75;;;-143.16;59.00
14885;BME280;7534;50.762;7.000;2023-03-25T03:19:44;88243.78;;;-143.16;59.24
14885;BME280;7534;50.762;7.000;2023-03-25T03:30:30;88195.34;;;-143.16;58.08
14885;BME280;7534;50.762;7.000;2023-03-25T03:33:07;88253.88;;;-143.16;57.43
14885;BME280;7534;50.762;7.000;2023-03-25T03:35:51;88233.69;;;-143.16;57.82
14885;BME280;7534;50.762;7.000;2023-03-25T03:38:27;88185.25;;;-143.16;58.03
14885;BME280;7534;50.762;7.000;2023-03-25T03:40:59;88203.41;;;-143.16;58.29
14885;BME280;7534;50.762;7.000;2023-03-25T03:43:40;88225.63;;;-143.16;58.25
14885;BME280;7534;50.762;7.000;2023-03-25T03:46:59;88255.91;;;-143.16;58.56
14885;BME280;7534;50.762;7.000;2023-03-25T03:49:32;88235.72;;;-143.16;59.19
14885;BME280;7534;50.762;7.000;2023-03-25T03:52:27;88266.00;;;-143.16;59.24
14885;BME280;7534;50.762;7.000;2023-03-25T03:55:03;88284.16;;;-143.16;59.36
14885;BME280;7534;50.762;7.000;2023-03-25T03:57:40;88304.34;;;-143.16;59.35
14885;BME280;7534;50.762;7.000;2023-03-25T04:00:24;88298.28;;;-143.16;59.60
14885;BME280;7534;50.762;7.000;2023-03-25T04:02:59;88261.97;;;-143.16;59.66
14885;BME280;7534;50.762;7.000;2023-03-25T04:05:28;88288.19;;;-143.16;59.03
14885;BME280;7534;50.762;7.000;2023-03-25T04:08:16;88290.22;;;-143.16;59.13
14885;BME280;7534;50.762;7.000;2023-03-25T04:10:57;88270.03;;;-143.16;58.95
14885;BME280;7534;50.762;7.000;2023-03-25T04:13:35;88259.94;;;-143.16;59.06
14885;BME280;7534;50.762;7.000;2023-03-25T04:16:02;88272.06;;;-143.16;58.98
14885;BME280;7534;50.762;7.000;2023-03-25T04:18:28;88284.16;;;-143.16;58.52
14885;BME280;7534;50.762;7.000;2023-03-25T04:20:59;88318.47;;;-143.16;58.60
14885;BME280;7534;50.762;7.000;2023-03-25T04:23:28;88292.22;;;-143.16;58.70
14885;BME280;7534;50.762;7.000;2023-03-25T04:25:58;88282.16;;;-143.16;58.54
14885;BME280;7534;50.762;7.000;2023-03-25T04:28:27;88296.28;;;-143.16;58.53
14885;BME280;7534;50.762;7.000;2023-03-25T04:30:53;88233.69;;;-143.16;58.76
14885;BME280;7534;50.762;7.000;2023-03-25T04:33:24;88259.94;;;-143.16;58.36
14885;BME280;7534;50.762;7.000;2023-03-25T04:35:50;88284.16;;;-143.16;58.00
14885;BME280;7534;50.762;7.000;2023-03-25T04:38:17;88280.13;;;-143.16;57.34
14885;BME280;7534;50.762;7.000;2023-03-25T04:40:45;88251.88;;;-143.16;57.59
14885;BME280;7534;50.762;7.000;2023-03-25T04:43:15;88223.59;;;-143.16;57.69
14885;BME280;7534;50.762;7.000;2023-03-25T04:45:42;88251.88;;;-143.16;57.36
14885;BME280;7534;50.762;7.000;2023-03-25T04:48:26;88282.16;;;-143.16;57.59
14885;BME280;7534;50.762;7.000;2023-03-25T04:50:58;88270.03;;;-143.16;57.17
14885;BME280;7534;50.762;7.000;2023-03-25T04:53:25;88205.44;;;-143.16;56.76
14885;BME280;7534;50.762;7.000;2023-03-25T04:55:52;88278.09;;;-143.16;56.92
14885;BME280;7534;50.762;7.000;2023-03-25T04:58:19;88235.72;;;-143.16;56.41
14885;BME280;7534;50.762;7.000;2023-03-25T05:00:48;88247.81;;;-143.16;56.84
14885;BME280;7534;50.762;7.000;2023-03-25T05:03:15;88280.13;;;-143.16;56.48
14885;BME280;7534;50.762;7.000;2023-03-25T05:05:41;88302.34;;;-143.16;56.28
14885;BME280;7534;50.762;7.000;2023-03-25T05:08:08;88241.78;;;-143.16;56.20
14885;BME280;7534;50.762;7.000;2023-03-25T05:10:35;88276.09;;;-143.16;56.06
14885;BME280;7534;50.762;7.000;2023-03-25T05:13:16;88270.03;;;-143.16;55.85
14885;BME280;7534;50.762;7.000;2023-03-25T05:15:41;88302.34;;;-143.16;56.02
14885;BME280;7534;50.762;7.000;2023-03-25T05:18:10;88249.84;;;-143.16;56.19
14885;BME280;7534;50.762;7.000;2023-03-25T05:20:40;88268.00;;;-143.16;56.28
14885;BME280;7534;50.762;7.000;2023-03-25T05:23:11;88318.47;;;-143.16;56.42
14885;BME280;7534;50.762;7.000;2023-03-25T05:25:45;88296.28;;;-143.16;56.71
14885;BME280;7534;50.762;7.000;2023-03-25T05:28:12;88282.16;;;-143.16;56.49
14885;BME280;7534;50.762;7.000;2023-03-25T05:30:44;88282.16;;;-143.16;56.53
14885;BME280;7534;50.762;7.000;2023-03-25T05:33:13;88300.31;;;-143.16;56.88
14885;BME280;7534;50.762;7.000;2023-03-25T05:35:40;88302.34;;;-143.16;57.09
14885;BME280;7534;50.762;7.000;2023-03-25T05:38:08;88314.44;;;-143.16;57.35
14885;BME280;7534;50.762;7.000;2023-03-25T05:40:36;88270.03;;;-143.16;57.74
14885;BME280;7534;50.762;7.000;2023-03-25T05:43:02;88290.22;;;-143.16;57.69
14885;BME280;7534;50.762;7.000;2023-03-25T05:45:28;88290.22;;;-143.16;57.71
14885;BME280;7534;50.762;7.000;2023-03-25T05:47:55;88276.09;;;-143.16;57.47
14885;BME280;7534;50.762;7.000;2023-03-25T05:50:21;88245.81;;;-143.16;57.26
14885;BME280;7534;50.762;7.000;2023-03-25T05:52:47;88251.88;;;-143.16;56.97
14885;BME280;7534;50.762;7.000;2023-03-25T05:55:19;88316.47;;;-143.16;57.19
14885;BME280;7534;50.762;7.000;2023-03-25T05:57:46;88302.34;;;-143.16;56.66
14885;BME280;7534;50.762;7.000;2023-03-25T06:00:14;88253.88;;;-143.16;56.65
14885;BME280;7534;50.762;7.000;2023-03-25T06:02:41;88251.88;;;-143.16;56.55
14885;BME280;7534;50.762;7.000;2023-03-25T06:05:09;88219.56;;;-143.16;56.11
14885;BME280;7534;50.762;7.000;2023-03-25T06:07:42;88201.41;;;-143.16;55.35
14885;BME280;7534;50.762;7.000;2023-03-25T06:10:13;88209.47;;;-143.16;55.17
14885;BME280;7534;50.762;7.000;2023-03-25T06:12:42;88193.31;;;-143.16;55.34
14885;BME280;7534;50.762;7.000;2023-03-25T06:15:12;88229.66;;;-143.16;55.08
14885;BME280;7534;50.762;7.000;2023-03-25T06:17:39;88209.47;;;-143.16;55.05
14885;BME280;7534;50.762;7.000;2023-03-25T06:20:08;88308.38;;;-143.16;55.33
14885;BME280;7534;50.762;7.000;2023-03-25T06:22:42;88266.00;;;-143.16;54.88
14885;BME280;7534;50.762;7.000;2023-03-25T06:25:17;88116.63;;;-143.16;53.24
14885;BME280;7534;50.762;7.000;2023-03-25T06:27:46;88025.78;;;-143.16;50.63
14885;BME280;7534;50.762;7.000;2023-03-25T06:30:19;87971.28;;;-143.16;49.49
14885;BME280;7534;50.762;7.000;2023-03-25T06:32:46;87991.47;;;-143.16;49.44
14885;BME280;7534;50.762;7.000;2023-03-25T06:35:16;87936.97;;;-143.16;49.63
14885;BME280;7534;50.762;7.000;2023-03-25T06:37:45;87977.31;;;-143.16;49.18
14885;BME280;7534;50.762;7.000;2023-03-25T06:40:13;87999.53;;;-143.16;49.24
14885;BME280;7534;50.762;7.000;2023-03-25T06:42:39;88021.75;;;-143.16;49.72
14885;BME280;7534;50.762;7.000;2023-03-25T06:45:07;88086.34;;;-143.16;50.85
14885;BME280;7534;50.762;7.000;2023-03-25T06:47:33;88118.63;;;-143.16;52.40
14885;BME280;7534;50.762;7.000;2023-03-25T06:49:59;88094.41;;;-143.16;53.27
14885;BME280;7534;50.762;7.000;2023-03-25T06:52:24;88126.72;;;-143.16;53.47
14885;BME280;7534;50.762;7.000;2023-03-25T06:54:50;88041.94;;;-143.16;53.02
14885;BME280;7534;50.762;7.000;2023-03-25T06:57:16;88090.38;;;-143.16;52.62
14885;BME280;7534;50.762;7.000;2023-03-25T06:59:42;88106.53;;;-143.16;54.74
14885;BME280;7534;50.762;7.000;2023-03-25T07:02:11;88116.63;;;-143.16;56.55
14885;BME280;7534;50.762;7.000;2023-03-25T07:04:38;88219.56;;;-143.16;57.86
14885;BME280;7534;50.762;7.000;2023-03-25T07:07:04;88157.00;;;-143.16;59.96
14885;BME280;7534;50.762;7.000;2023-03-25T07:09:30;88201.41;;;-143.16;61.00
14885;BME280;7534;50.762;7.000;2023-03-25T07:11:55;88203.41;;;-143.16;62.43
14885;BME280;7534;50.762;7.000;2023-03-25T07:14:21;88193.31;;;-143.16;64.32
14885;BME280;7534;50.762;7.000;2023-03-25T07:16:47;88278.09;;;-143.16;65.46
14885;BME280;7534;50.762;7.000;2023-03-25T07:19:14;88261.97;;;-143.16;66.62
14885;BME280;7534;50.762;7.000;2023-03-25T07:21:39;88338.66;;;-143.16;67.47
14885;BME280;7534;50.762;7.000;2023-03-25T07:24:05;88245.81;;;-143.16;68.40
14885;BME280;7534;50.762;7.000;2023-03-25T07:26:31;88290.22;;;-143.16;69.37
14885;BME280;7534;50.762;7.000;2023-03-25T07:28:57;88362.91;;;-143.16;69.04
14885;BME280;7534;50.762;7.000;2023-03-25T07:31:23;88255.91;;;-143.16;70.00
14885;BME280;7534;50.762;7.000;2023-03-25T07:33:49;88282.16;;;-143.16;72.05
14885;BME280;7534;50.762;7.000;2023-03-25T07:36:16;88322.53;;;-143.16;73.37
14885;BME280;7534;50.762;7.000;2023-03-25T07:38:42;88282.16;;;-143.16;74.05
14885;BME280;7534;50.762;7.000;2023-03-25T07:41:11;88330.59;;;-143.16;74.33
14885;BME280;7534;50.762;7.000;2023-03-25T07:43:38;88358.84;;;-143.16;74.18
14885;BME280;7534;50.762;7.000;2023-03-25T07:46:05;88362.91;;;-143.16;73.57
14885;BME280;7534;50.762;7.000;2023-03-25T07:48:31;88407.31;;;-143.16;73.70
14885;BME280;7534;50.762;7.000;2023-03-25T07:50:57;88350.78;;;-143.16;74.57
14885;BME280;7534;50.762;7.000;2023-03-25T07:53:22;88362.91;;;-143.16;73.82
14885;BME280;7534;50.762;7.000;2023-03-25T07:55:48;88342.72;;;-143.16;73.90
14885;BME280;7534;50.762;7.000;2023-03-25T07:58:17;88370.97;;;-143.16;72.47
14885;BME280;7534;50.762;7.000;2023-03-25T08:00:44;88377.03;;;-143.16;70.88
14885;BME280;7534;50.762;7.000;2023-03-25T08:03:14;88330.59;;;-143.16;69.78
14885;BME280;7534;50.762;7.000;2023-03-25T08:05:47;88346.75;;;-143.16;67.30
14885;BME280;7534;50.762;7.000;2023-03-25T08:08:14;88379.03;;;-143.16;65.27
14885;BME280;7534;50.762;7.000;2023-03-25T08:10:43;88344.72;;;-143.16;64.06
14885;BME280;7534;50.762;7.000;2023-03-25T08:13:11;88342.72;;;-143.16;65.03
14885;BME280;7534;50.762;7.000;2023-03-25T08:15:37;88366.94;;;-143.16;64.82
14885;BME280;7534;50.762;7.000;2023-03-25T08:18:04;88346.75;;;-143.16;63.84
14885;BME280;7534;50.762;7.000;2023-03-25T08:20:34;88286.19;;;-143.16;61.55
14885;BME280;7534;50.762;7.000;2023-03-25T08:23:00;88350.78;;;-143.16;60.71
14885;BME280;7534;50.762;7.000;2023-03-25T08:25:28;88286.19;;;-143.16;60.14
14885;BME280;7534;50.762;7.000;2023-03-25T08:27:54;88298.28;;;-143.16;60.60
14885;BME280;7534;50.762;7.000;2023-03-25T08:30:21;88245.81;;;-143.16;59.39
14885;BME280;7534;50.762;7.000;2023-03-25T08:32:47;88112.56;;;-143.16;56.36
14885;BME280;7534;50.762;7.000;2023-03-25T08:35:20;87985.41;;;-143.16;52.64
14885;BME280;7534;50.762;7.000;2023-03-25T08:37:47;87864.28;;;-143.16;50.32
14885;BME280;7534;50.762;7.000;2023-03-25T08:40:13;87543.38;;;-143.16;47.06
14885;BME280;7534;50.762;7.000;2023-03-25T08:42:41;87535.28;;;-143.16;44.68
14885;BME280;7534;50.762;7.000;2023-03-25T08:45:08;87636.22;;;-143.16;45.54
14885;BME280;7534;50.762;7.000;2023-03-25T08:47:34;87555.47;;;-143.16;44.83
14885;BME280;7534;50.762;7.000;2023-03-25T08:50:00;87706.84;;;-143.16;46.60
14885;BME280;7534;50.762;7.000;2023-03-25T08:52:25;87587.78;;;-143.16;45.04
14885;BME280;7534;50.762;7.000;2023-03-25T08:54:51;87547.41;;;-143.16;43.79
14885;BME280;7534;50.762;7.000;2023-03-25T08:57:17;87353.66;;;-143.16;41.17
14885;BME280;7534;50.762;7.000;2023-03-25T08:59:42;87222.47;;;-143.16;39.83
14885;BME280;7534;50.762;7.000;2023-03-25T09:02:11;87361.72;;;-143.16;39.20
14885;BME280;7534;50.762;7.000;2023-03-25T09:04:37;87301.19;;;-143.16;39.58
14885;BME280;7534;50.762;7.000;2023-03-25T09:07:05;87551.44;;;-143.16;41.48
14885;BME280;7534;50.762;7.000;2023-03-25T09:09:32;87612.00;;;-143.16;42.61
14885;BME280;7534;50.762;7.000;2023-03-25T09:11:58;87729.06;;;-143.16;45.17
14885;BME280;7534;50.762;7.000;2023-03-25T09:14:23;87773.47;;;-143.16;45.69
14885;BME280;7534;50.762;7.000;2023-03-25T09:16:49;87783.56;;;-143.16;44.66
14885;BME280;7534;50.762;7.000;2023-03-25T09:19:16;87714.94;;;-143.16;45.07
14885;BME280;7534;50.762;7.000;2023-03-25T09:21:42;87642.28;;;-143.16;44.09
14885;BME280;7534;50.762;7.000;2023-03-25T09:24:11;87595.84;;;-143.16;43.68
14885;BME280;7534;50.762;7.000;2023-03-25T09:26:38;87501.00;;;-143.16;41.85
14885;BME280;7534;50.762;7.000;2023-03-25T09:29:04;87492.91;;;-143.16;40.44
14885;BME280;7534;50.762;7.000;2023-03-25T09:31:30;87585.75;;;-143.16;40.34
14885;BME280;7534;50.762;7.000;2023-03-25T09:33:56;87482.81;;;-143.16;40.11
14885;BME280;7534;50.762;7.000;2023-03-25T09:36:22;87460.63;;;-143.16;40.04
14885;BME280;7534;50.762;7.000;2023-03-25T09:38:47;87428.34;;;-143.16;37.86
14885;BME280;7534;50.762;7.000;2023-03-25T09:47:10;87779.53;;;-143.16;44.03
14885;BME280;7534;50.762;7.000;2023-03-25T09:49:42;87809.78;;;-143.16;43.41
14885;BME280;7534;50.762;7.000;2023-03-25T09:52:17;87759.34;;;-143.16;43.05
14885;BME280;7534;50.762;7.000;2023-03-25T09:54:53;87769.44;;;-143.16;43.74
14885;BME280;7534;50.762;7.000;2023-03-25T09:57:27;87825.94;;;-143.16;44.62
14885;BME280;7534;50.762;7.000;2023-03-25T09:59:58;87801.72;;;-143.16;45.16
14885;BME280;7534;50.762;7.000;2023-03-25T10:03:20;87779.53;;;-143.16;43.95
14885;BME280;7534;50.762;7.000;2023-03-25T10:06:04;87819.88;;;-143.16;43.88
14885;BME280;7534;50.762;7.000;2023-03-25T10:09:00;87735.13;;;-143.16;43.57
14885;BME280;7534;50.762;7.000;2023-03-25T10:17:35;87727.03;;;-143.16;43.36
14885;BME280;7534;50.762;7.000;2023-03-25T10:23:21;87731.06;;;-143.16;49.06
14885;BME280;7534;50.762;7.000;2023-03-25T10:25:58;87757.31;;;-143.16;47.35
14885;BME280;7534;50.762;7.000;2023-03-25T10:28:35;87799.69;;;-143.16;47.32
14885;BME280;7534;50.762;7.000;2023-03-25T10:31:10;87819.88;;;-143.16;48.83
14885;BME280;7534;50.762;7.000;2023-03-25T10:33:45;87817.88;;;-143.16;49.16
14885;BME280;7534;50.762;7.000;2023-03-25T10:36:16;87789.63;;;-143.16;48.93
14885;BME280;7534;50.762;7.000;2023-03-25T10:38:52;87757.31;;;-143.16;47.58
14885;BME280;7534;50.762;7.000;2023-03-25T10:41:26;87807.78;;;-143.16;47.06
14885;BME280;7534;50.762;7.000;2023-03-25T10:43:55;87771.44;;;-143.16;46.53
14885;BME280;7534;50.762;7.000;2023-03-25T10:46:36;87789.63;;;-143.16;44.54
14885;BME280;7534;50.762;7.000;2023-03-25T10:49:14;87761.34;;;-143.16;44.89
14885;BME280;7534;50.762;7.000;2023-03-25T10:51:43;87753.28;;;-143.16;44.08
14885;BME280;7534;50.762;7.000;2023-03-25T10:54:12;87735.13;;;-143.16;44.58
14885;BME280;7534;50.762;7.000;2023-03-25T10:56:48;87700.81;;;-143.16;44.61
14885;BME280;7534;50.762;7.000;2023-03-25T10:59:32;87672.53;;;-143.16;43.81
14885;BME280;7534;50.762;7.000;2023-03-25T11:02:12;87702.81;;;-143.16;43.50
14885;BME280;7534;50.762;7.000;2023-03-25T11:04:42;87767.41;;;-143.16;44.61
14885;BME280;7534;50.762;7.000;2023-03-25T11:07:43;87737.13;;;-143.16;44.30
14885;BME280;7534;50.762;7.000;2023-03-25T11:12:50;87751.25;;;-143.16;44.74
14885;BME280;7534;50.762;7.000;2023-03-25T11:15:28;87817.88;;;-143.16;43.90
14885;BME280;7534;50.762;7.000;2023-03-25T11:18:06;87757.31;;;-143.16;45.22
14885;BME280;7534;50.762;7.000;2023-03-25T11:20:44;87729.06;;;-143.16;44.86
14885;BME280;7534;50.762;7.000;2023-03-25T11:23:36;87765.38;;;-143.16;44.28
14885;BME280;7534;50.762;7.000;2023-03-25T11:26:26;87735.13;;;-143.16;44.13
14885;BME280;7534;50.762;7.000;2023-03-25T11:29:00;87757.31;;;-143.16;44.18
14885;BME280;7534;50.762;7.000;2023-03-25T11:31:28;87793.66;;;-143.16;43.60
14885;BME280;7534;50.762;7.000;2023-03-25T11:36:51;87765.38;;;-143.16;42.77
14885;BME280;7534;50.762;7.000;2023-03-25T11:41:51;87680.63;;;-143.16;42.78
14885;BME280;7534;50.762;7.000;2023-03-25T11:44:27;87642.28;;;-143.16;43.26
14885;BME280;7534;50.762;7.000;2023-03-25T11:46:57;87642.28;;;-143.16;42.64
14885;BME280;7534;50.762;7.000;2023-03-25T11:49:25;87660.44;;;-143.16;42.66
14885;BME280;7534;50.762;7.000;2023-03-25T11:52:01;87646.31;;;-143.16;41.81
14885;BME280;7534;50.762;7.000;2023-03-25T11:54:28;87640.25;;;-143.16;41.71
14885;BME280;7534;50.762;7.000;2023-03-25T11:56:55;87595.84;;;-143.16;41.46
14885;BME280;7534;50.762;7.000;2023-03-25T11:59:34;87632.19;;;-143.16;41.30
14885;BME280;7534;50.762;7.000;2023-03-25T12:05:15;87684.66;;;-143.16;41.82
14885;BME280;7534;50.762;7.000;2023-03-25T12:07:51;87636.22;;;-143.16;41.87
14885;BME280;7534;50.762;7.000;2023-03-25T12:13:09;87634.19;;;-143.16;41.56
14885;BME280;7534;50.762;7.000;2023-03-25T12:16:19;87656.41;;;-143.16;40.53
14885;BME280;7534;50.762;7.000;2023-03-25T12:21:21;87648.31;;;-143.16;40.81
14885;BME280;7534;50.762;7.000;2023-03-25T12:24:08;87660.44;;;-143.16;40.30
14885;BME280;7534;50.762;7.000;2023-03-25T12:32:28;87646.31;;;-143.16;41.41
14885;BME280;7534;50.762;7.000;2023-03-25T12:38:24;87559.53;;;-143.16;39.46
14885;BME280;7534;50.762;7.000;2023-03-25T12:44:28;87529.25;;;-143.16;39.13
14885;BME280;7534;50.762;7.000;2023-03-25T12:47:20;87466.69;;;-143.16;38.81
14885;BME280;7534;50.762;7.000;2023-03-25T12:50:10;87555.47;;;-143.16;38.24
14885;BME280;7534;50.762;7.000;2023-03-25T12:52:57;87498.97;;;-143.16;38.00
14885;BME280;7534;50.762;7.000;2023-03-25T12:58:43;87591.81;;;-143.16;38.89
14885;BME280;7534;50.762;7.000;2023-03-25T13:04:35;87519.16;;;-143.16;39.33
14885;BME280;7534;50.762;7.000;2023-03-25T13:07:15;87507.03;;;-143.16;39.00
14885;BME280;7534;50.762;7.000;2023-03-25T13:10:24;87620.06;;;-143.16;39.62
14885;BME280;7534;50.762;7.000;2023-03-25T13:12:57;87605.94;;;-143.16;38.92
14885;BME280;7534;50.762;7.000;2023-03-25T13:15:31;87581.72;;;-143.16;39.96
14885;BME280;7534;50.762;7.000;2023-03-25T13:18:26;87535.28;;;-143.16;39.32
14885;BME280;7534;50.762;7.000;2023-03-25T13:23:58;87444.47;;;-143.16;37.61
14885;BME280;7534;50.762;7.000;2023-03-25T13:26:29;87448.50;;;-143.16;37.15
14885;BME280;7534;50.762;7.000;2023-03-25T13:29:01;87454.56;;;-143.16;37.09
14885;BME280;7534;50.762;7.000;2023-03-25T13:31:34;87450.53;;;-143.16;36.93
14885;BME280;7534;50.762;7.000;2023-03-25T13:34:35;87472.72;;;-143.16;36.82
14885;BME280;7534;50.762;7.000;2023-03-25T13:37:13;87452.56;;;-143.16;36.74
14885;BME280;7534;50.762;7.000;2023-03-25T13:43:10;87603.91;;;-143.16;35.75
14885;BME280;7534;50.762;7.000;2023-03-25T13:46:00;87656.41;;;-143.16;36.25
14885;BME280;7534;50.762;7.000;2023-03-25T13:48:51;87662.44;;;-143.16;36.30
14885;BME280;7534;50.762;7.000;2023-03-25T13:51:18;87636.22;;;-143.16;36.74
14885;BME280;7534;50.762;7.000;2023-03-25T13:54:03;87628.13;;;-143.16;37.08
14885;BME280;7534;50.762;7.000;2023-03-25T14:00:02;87656.41;;;-143.16;38.68
14885;BME280;7534;50.762;7.000;2023-03-25T14:06:09;87674.56;;;-143.16;39.11
14885;BME280;7534;50.762;7.000;2023-03-25T14:12:03;87805.75;;;-143.16;44.12
14885;BME280;7534;50.762;7.000;2023-03-25T14:14:44;87821.91;;;-143.16;45.34
14885;BME280;7534;50.762;7.000;2023-03-25T14:17:14;87991.47;;;-143.16;56.41
14885;BME280;7534;50.762;7.000;2023-03-25T14:19:49;88068.16;;;-143.16;63.32
14885;BME280;7534;50.762;7.000;2023-03-25T14:22:37;88080.28;;;-143.16;65.94
14885;BME280;7534;50.762;7.000;2023-03-25T14:25:13;88021.75;;;-143.16;68.21
14885;BME280;7534;50.762;7.000;2023-03-25T14:27:48;88047.97;;;-143.16;67.40
14885;BME280;7534;50.762;7.000;2023-03-25T14:30:27;88041.94;;;-143.16;68.06
14885;BME280;7534;50.762;7.000;2023-03-25T14:33:09;88056.06;;;-143.16;67.16
14885;BME280;7534;50.762;7.000;2023-03-25T14:35:44;88052.00;;;-143.16;65.82
14885;BME280;7534;50.762;7.000;2023-03-25T14:44:35;88011.66;;;-143.16;64.22
14885;BME280;7534;50.762;7.000;2023-03-25T14:50:02;87943.00;;;-143.16;58.58
14885;BME280;7534;50.762;7.000;2023-03-25T14:52:43;87886.50;;;-143.16;58.62
14885;BME280;7534;50.762;7.000;2023-03-25T14:55:32;87904.66;;;-143.16;56.50
14885;BME280;7534;50.762;7.000;2023-03-25T14:58:22;87888.50;;;-143.16;55.32
14885;BME280;7534;50.762;7.000;2023-03-25T15:01:05;87882.47;;;-143.16;54.05
14885;BME280;7534;50.762;7.000;2023-03-25T15:03:38;87829.97;;;-143.16;52.98